Time;durP1;ratioP1;P1;durP2;ratioP2;P2;SDS_P1;SDS_P2;PMS_P1;PMS_P2;Temp;Humidity;BMP_temperature;BMP_pressure;BME280_temperature;BME280_humidity;BME280_pressure;Samples;Min_cycle;Max_cycle;Signal;HPM_P1;HPM_P2
2024/03/05 00:00:10;;;;;;;11.45;6.60;;;5.40;99.90;;;;;;5013714;28;20064;-76
2024/03/05 00:02:43;;;;;;;9.95;5.88;;;5.40;99.90;;;;;;4979438;28;20044;-76
2024/03/05 00:05:13;;;;;;;10.32;6.45;;;5.40;99.90;;;;;;4972368;28;20037;-76
2024/03/05 00:07:40;;;;;;;10.05;6.28;;;5.40;99.90;;;;;;5021603;28;20044;-76
2024/03/05 00:10:07;;;;;;;10.80;6.68;;;5.40;99.90;;;;;;5020641;28;20025;-76
2024/03/05 00:12:34;;;;;;;10.75;6.68;;;5.40;99.90;;;;;;4987583;28;20017;-76
2024/03/05 00:15:01;;;;;;;13.05;8.32;;;5.40;99.90;;;;;;4958367;28;21146;-76
2024/03/05 00:17:27;;;;;;;10.52;6.53;;;5.30;99.90;;;;;;4992882;28;20034;-76
2024/03/05 00:19:54;;;;;;;10.27;6.70;;;5.40;99.90;;;;;;4974439;28;20041;-76
2024/03/05 00:22:20;;;;;;;10.80;7.00;;;5.30;99.90;;;;;;4987298;28;20048;-75
2024/03/05 00:24:47;;;;;;;10.32;6.90;;;5.30;99.90;;;;;;4970822;28;20052;-75
2024/03/05 00:27:16;;;;;;;11.88;7.75;;;5.30;99.90;;;;;;4971376;28;20064;-76
2024/03/05 00:29:42;;;;;;;11.65;7.55;;;5.30;99.90;;;;;;4988020;28;20277;-76
2024/03/05 00:32:09;;;;;;;12.02;7.43;;;5.30;99.90;;;;;;4959666;28;20943;-76
2024/03/05 00:34:35;;;;;;;17.00;7.93;;;5.40;99.90;;;;;;5024085;28;20583;-76
2024/03/05 00:37:01;;;;;;;9.80;6.93;;;5.40;99.90;;;;;;4986998;28;20040;-75
2024/03/05 00:39:28;;;;;;;11.52;8.13;;;5.40;99.90;;;;;;4982525;28;20045;-76
2024/03/05 00:41:54;;;;;;;14.98;7.20;;;5.50;99.90;;;;;;4970831;28;20041;-76
2024/03/05 00:44:21;;;;;;;10.27;6.93;;;5.50;99.90;;;;;;4971337;28;20030;-76
2024/03/05 00:46:47;;;;;;;10.10;7.05;;;5.60;99.90;;;;;;4988401;28;20504;-76
2024/03/05 00:49:13;;;;;;;15.68;8.05;;;5.70;99.90;;;;;;5028107;28;20025;-77
2024/03/05 00:51:40;;;;;;;12.43;7.97;;;5.80;99.90;;;;;;4983430;28;20495;-75
2024/03/05 00:54:06;;;;;;;11.95;8.18;;;5.80;99.90;;;;;;4995419;28;20025;-75
2024/03/05 00:56:33;;;;;;;11.38;7.65;;;5.90;99.90;;;;;;4991505;28;20665;-76
2024/03/05 00:58:59;;;;;;;13.38;8.73;;;6.00;99.90;;;;;;4974761;28;20029;-76
2024/03/05 01:01:26;;;;;;;13.70;9.02;;;6.00;99.90;;;;;;4977091;28;20029;-75
2024/03/05 01:03:54;;;;;;;13.10;8.65;;;6.10;99.90;;;;;;4965368;28;20033;-75
2024/03/05 01:06:21;;;;;;;12.00;8.45;;;6.10;99.90;;;;;;5000468;28;20036;-76
2024/03/05 01:08:47;;;;;;;12.27;8.40;;;6.20;99.90;;;;;;4979592;28;20484;-76
2024/03/05 01:11:14;;;;;;;15.20;8.65;;;6.30;99.90;;;;;;5022265;28;20029;-75
2024/03/05 01:13:41;;;;;;;15.38;9.38;;;6.30;99.90;;;;;;4974545;28;20045;-76
2024/03/05 01:16:09;;;;;;;15.68;9.23;;;6.30;99.90;;;;;;4989738;28;20048;-75
2024/03/05 01:18:36;;;;;;;11.77;8.70;;;6.40;99.90;;;;;;4993508;28;20934;-75
2024/03/05 01:21:03;;;;;;;13.02;8.50;;;6.40;99.90;;;;;;4997917;28;20049;-75
2024/03/05 01:23:30;;;;;;;12.77;8.52;;;6.40;99.90;;;;;;4999566;28;20041;-76
2024/03/05 01:25:58;;;;;;;15.48;10.00;;;6.50;99.90;;;;;;4996838;28;20041;-76
2024/03/05 01:28:28;;;;;;;13.73;9.15;;;6.50;99.90;;;;;;4976453;28;20388;-76
2024/03/05 01:30:54;;;;;;;14.10;10.30;;;6.60;99.90;;;;;;4976474;28;20044;-76
2024/03/05 01:33:22;;;;;;;15.55;10.98;;;6.60;99.90;;;;;;4990717;28;20056;-76
2024/03/05 01:35:49;;;;;;;16.25;10.80;;;6.60;99.90;;;;;;4994744;28;20044;-75
2024/03/05 01:38:16;;;;;;;15.63;10.75;;;6.70;99.90;;;;;;4985164;28;20029;-76
2024/03/05 01:40:42;;;;;;;15.65;11.00;;;6.70;99.90;;;;;;4983434;28;20045;-75
2024/03/05 01:43:10;;;;;;;12.50;8.50;;;6.70;99.90;;;;;;4962607;28;20060;-75
2024/03/05 01:45:36;;;;;;;12.95;8.93;;;6.70;99.90;;;;;;4993596;28;20057;-75
2024/03/05 01:48:04;;;;;;;15.23;10.60;;;6.70;99.90;;;;;;4991926;28;20034;-75
2024/03/05 01:50:35;;;;;;;16.27;10.35;;;6.70;99.90;;;;;;4994836;28;20048;-75
2024/03/05 01:53:12;;;;;;;15.13;9.93;;;6.70;99.90;;;;;;4978908;28;20044;-76
2024/03/05 01:55:40;;;;;;;17.27;10.38;;;6.70;99.90;;;;;;4999524;28;20036;-76
2024/03/05 01:58:08;;;;;;;16.80;10.13;;;6.80;99.90;;;;;;4995708;28;20057;-76
2024/03/05 02:00:36;;;;;;;15.77;10.57;;;6.80;99.90;;;;;;4977613;28;20042;-76
2024/03/05 02:03:03;;;;;;;22.73;12.35;;;6.70;99.90;;;;;;4988997;28;20252;-77
2024/03/05 02:05:29;;;;;;;16.58;12.00;;;6.80;99.90;;;;;;4994163;28;20041;-75
2024/03/05 02:07:57;;;;;;;19.67;12.60;;;6.80;99.90;;;;;;4980858;28;20404;-75
2024/03/05 02:10:24;;;;;;;18.15;12.98;;;6.80;99.90;;;;;;4999418;28;20033;-74
2024/03/05 02:12:50;;;;;;;14.93;10.73;;;6.80;99.90;;;;;;4995484;28;20037;-75
2024/03/05 02:15:18;;;;;;;19.80;11.88;;;6.80;99.90;;;;;;4992245;28;20033;-75
2024/03/05 02:17:48;;;;;;;17.25;11.70;;;6.80;99.90;;;;;;4990413;28;21833;-74
2024/03/05 02:20:14;;;;;;;18.52;12.10;;;6.80;99.90;;;;;;5006518;28;20045;-75
2024/03/05 02:22:41;;;;;;;22.80;14.00;;;6.80;99.90;;;;;;4972326;28;20049;-75
2024/03/05 02:25:09;;;;;;;18.35;12.05;;;6.80;99.90;;;;;;4993218;28;22533;-75
2024/03/05 02:27:36;;;;;;;20.52;11.77;;;6.80;99.90;;;;;;4983287;28;20461;-76
2024/03/05 02:30:10;;;;;;;19.13;12.20;;;6.90;99.90;;;;;;5011594;28;20025;-75
2024/03/05 02:32:41;;;;;;;19.40;12.45;;;6.90;99.90;;;;;;4989253;28;20037;-76
2024/03/05 02:35:11;;;;;;;16.30;11.15;;;6.90;99.90;;;;;;4992332;28;20033;-75
2024/03/05 02:37:38;;;;;;;18.40;12.20;;;6.90;99.90;;;;;;4993535;28;20609;-76
2024/03/05 02:40:08;;;;;;;17.02;11.18;;;7.00;99.90;;;;;;4976551;28;20060;-76
2024/03/05 02:42:35;;;;;;;18.52;11.02;;;7.00;99.90;;;;;;4981316;28;20041;-76
2024/03/05 02:45:07;;;;;;;15.30;10.50;;;7.00;99.90;;;;;;5000128;28;20033;-76
2024/03/05 02:47:41;;;;;;;16.33;11.75;;;7.00;99.90;;;;;;5007908;28;20716;-76
2024/03/05 02:50:09;;;;;;;28.63;16.90;;;7.00;99.90;;;;;;4990786;28;20049;-75
2024/03/05 02:52:36;;;;;;;22.50;14.63;;;7.10;99.90;;;;;;4989612;28;20332;-76
2024/03/05 02:55:03;;;;;;;20.30;13.52;;;7.10;99.90;;;;;;4975002;28;20484;-76
2024/03/05 02:57:31;;;;;;;20.83;12.77;;;7.10;99.90;;;;;;4987885;28;20439;-76
2024/03/05 02:59:57;;;;;;;18.88;12.02;;;7.10;99.90;;;;;;4982381;28;20045;-76
2024/03/05 03:02:24;;;;;;;19.27;12.40;;;7.10;99.90;;;;;;4996822;28;20033;-76
2024/03/05 03:04:51;;;;;;;21.48;13.05;;;7.10;99.90;;;;;;4973837;28;20038;-76
2024/03/05 03:07:18;;;;;;;20.83;12.82;;;7.10;99.90;;;;;;4988613;28;20480;-75
2024/03/05 03:09:46;;;;;;;17.20;11.98;;;7.20;99.90;;;;;;4972790;28;20538;-75
2024/03/05 03:12:12;;;;;;;18.77;12.55;;;7.20;99.90;;;;;;4992667;28;20404;-76
2024/03/05 03:14:44;;;;;;;19.33;12.73;;;7.20;99.90;;;;;;4997053;28;20033;-77
2024/03/05 03:17:10;;;;;;;19.10;13.18;;;7.20;99.90;;;;;;4997737;28;20077;-76
2024/03/05 03:19:37;;;;;;;18.90;11.75;;;7.20;99.90;;;;;;4978154;28;20041;-77
2024/03/05 03:22:04;;;;;;;18.30;12.88;;;7.20;99.90;;;;;;4988976;28;20184;-76
2024/03/05 03:24:30;;;;;;;17.42;12.38;;;7.20;99.90;;;;;;4990171;28;20037;-77
2024/03/05 03:26:57;;;;;;;21.33;12.73;;;7.20;99.90;;;;;;4989241;28;20044;-76
2024/03/05 03:29:23;;;;;;;19.88;13.05;;;7.20;99.90;;;;;;4971557;28;20033;-76
2024/03/05 03:31:50;;;;;;;18.10;12.50;;;7.20;99.90;;;;;;4996224;28;20391;-77
2024/03/05 03:34:16;;;;;;;21.30;12.77;;;7.30;99.90;;;;;;4981158;28;20408;-76
2024/03/05 03:36:43;;;;;;;20.27;12.57;;;7.30;99.90;;;;;;4974434;28;20703;-77
2024/03/05 03:39:23;;;;;;;18.85;12.93;;;7.30;99.90;;;;;;4974030;28;20034;-77
2024/03/05 03:41:55;;;;;;;18.60;12.57;;;7.30;99.90;;;;;;4975724;28;20053;-75
2024/03/05 03:44:22;;;;;;;19.50;12.85;;;7.30;99.90;;;;;;4990056;28;20048;-76
2024/03/05 03:46:49;;;;;;;19.75;13.35;;;7.30;99.90;;;;;;5027563;28;20029;-77
2024/03/05 03:49:23;;;;;;;20.23;13.15;;;7.30;99.90;;;;;;5000474;28;20021;-77
2024/03/05 03:51:51;;;;;;;18.67;12.48;;;7.30;99.90;;;;;;4974476;28;20428;-76
2024/03/05 03:54:17;;;;;;;21.75;13.07;;;7.30;99.90;;;;;;4990154;28;20040;-75
2024/03/05 03:56:44;;;;;;;22.38;13.90;;;7.30;99.90;;;;;;4989929;28;20585;-76
2024/03/05 03:59:10;;;;;;;19.38;13.75;;;7.30;99.90;;;;;;4956881;28;20037;-76
2024/03/05 04:01:36;;;;;;;22.50;14.52;;;7.30;99.90;;;;;;4988035;28;20045;-77
2024/03/05 04:04:03;;;;;;;24.35;14.73;;;7.30;99.90;;;;;;4997938;28;20029;-76
2024/03/05 04:06:31;;;;;;;22.65;13.55;;;7.30;99.90;;;;;;4978490;28;20021;-76
2024/03/05 04:08:58;;;;;;;23.77;14.68;;;7.30;99.90;;;;;;4989711;28;21608;-76
2024/03/05 04:11:24;;;;;;;21.95;14.52;;;7.30;99.90;;;;;;4971701;28;20041;-76
2024/03/05 04:13:50;;;;;;;24.08;14.68;;;7.30;99.90;;;;;;4989222;28;20037;-76
2024/03/05 04:16:17;;;;;;;20.92;14.02;;;7.30;99.90;;;;;;4974837;28;21182;-76
2024/03/05 04:18:45;;;;;;;23.10;14.13;;;7.30;99.90;;;;;;4997959;28;20041;-76
2024/03/05 04:21:11;;;;;;;20.90;13.68;;;7.30;99.90;;;;;;4997663;28;20038;-75
2024/03/05 04:23:38;;;;;;;21.63;14.55;;;7.30;99.90;;;;;;4987151;28;20022;-76
2024/03/05 04:26:13;;;;;;;24.45;15.70;;;7.40;99.90;;;;;;4959435;28;20412;-76
2024/03/05 04:28:54;;;;;;;24.08;16.23;;;7.40;99.90;;;;;;4992695;28;20042;-75
2024/03/05 04:31:30;;;;;;;27.73;16.83;;;7.40;99.90;;;;;;4977607;28;20032;-76
2024/03/05 04:33:59;;;;;;;24.50;14.68;;;7.40;99.90;;;;;;4997161;28;20151;-77
2024/03/05 04:36:25;;;;;;;31.48;19.77;;;7.40;99.90;;;;;;4985823;28;20041;-75
2024/03/05 04:38:54;;;;;;;45.28;25.80;;;7.40;99.90;;;;;;4995721;28;21932;-77
2024/03/05 04:41:20;;;;;;;30.60;18.63;;;7.40;99.90;;;;;;4960644;28;20028;-77
2024/03/05 04:43:48;;;;;;;30.63;20.20;;;7.30;99.90;;;;;;4975574;28;20026;-76
2024/03/05 04:46:15;;;;;;;27.67;17.38;;;7.40;99.90;;;;;;4992067;28;20037;-76
2024/03/05 04:48:41;;;;;;;38.83;22.45;;;7.30;99.90;;;;;;4971332;28;20033;-76
2024/03/05 04:51:12;;;;;;;54.88;29.50;;;7.40;99.90;;;;;;5000178;28;20038;-75
2024/03/05 04:53:39;;;;;;;42.97;25.75;;;7.40;99.90;;;;;;5001081;28;20410;-76
2024/03/05 04:56:08;;;;;;;38.88;25.35;;;7.30;99.90;;;;;;4992599;28;20235;-76
2024/03/05 04:58:36;;;;;;;54.00;29.75;;;7.30;99.90;;;;;;4991699;28;20029;-75
2024/03/05 05:01:02;;;;;;;47.17;26.80;;;7.30;99.90;;;;;;5025719;28;20412;-76
2024/03/05 05:03:28;;;;;;;54.90;29.05;;;7.30;99.90;;;;;;4992140;28;20032;-76
2024/03/05 05:05:55;;;;;;;59.13;29.70;;;7.30;99.90;;;;;;4980094;28;20053;-77
2024/03/05 05:08:22;;;;;;;44.20;24.63;;;7.30;99.90;;;;;;4981318;28;20033;-75
2024/03/05 05:10:48;;;;;;;48.58;27.13;;;7.30;99.90;;;;;;4995110;28;21010;-76
2024/03/05 05:13:15;;;;;;;40.47;23.15;;;7.30;99.90;;;;;;4993678;28;20025;-76
2024/03/05 05:15:41;;;;;;;37.95;22.30;;;7.30;99.90;;;;;;4958974;28;20048;-76
2024/03/05 05:18:07;;;;;;;42.45;24.33;;;7.40;99.90;;;;;;4992393;28;22148;-76
2024/03/05 05:20:34;;;;;;;39.13;21.83;;;7.40;99.90;;;;;;4991588;28;20693;-78
2024/03/05 05:23:00;;;;;;;42.05;21.63;;;7.40;99.90;;;;;;4980396;28;20033;-77
2024/03/05 05:25:28;;;;;;;36.13;20.23;;;7.40;99.90;;;;;;4965555;28;20122;-76
2024/03/05 05:27:54;;;;;;;45.10;23.23;;;7.40;99.90;;;;;;5000663;28;20740;-74
2024/03/05 05:30:23;;;;;;;45.38;24.23;;;7.40;99.90;;;;;;4988594;28;20037;-74
2024/03/05 05:32:50;;;;;;;52.97;27.52;;;7.40;99.90;;;;;;4986453;28;20034;-76
2024/03/05 05:35:17;;;;;;;48.35;26.10;;;7.40;99.90;;;;;;4957971;28;20044;-76
2024/03/05 05:37:44;;;;;;;40.58;22.52;;;7.40;99.90;;;;;;5008093;28;20041;-76
2024/03/05 05:40:11;;;;;;;37.78;20.63;;;7.40;99.90;;;;;;4980473;28;20601;-77
2024/03/05 05:42:40;;;;;;;46.13;23.95;;;7.40;99.90;;;;;;4974103;28;20460;-76
2024/03/05 05:45:11;;;;;;;54.45;27.75;;;7.40;99.90;;;;;;4969331;28;20056;-75
2024/03/05 05:47:38;;;;;;;35.90;21.30;;;7.40;99.90;;;;;;4966552;28;20511;-77
2024/03/05 05:50:17;;;;;;;47.58;25.00;;;7.40;99.90;;;;;;4971829;28;20046;-76
2024/03/05 05:52:48;;;;;;;50.13;26.08;;;7.40;99.90;;;;;;4953561;28;20045;-75
2024/03/05 05:55:17;;;;;;;39.47;22.17;;;7.40;99.90;;;;;;4976201;28;20076;-77
2024/03/05 05:57:46;;;;;;;34.95;20.42;;;7.40;99.90;;;;;;4993903;28;20037;-76
2024/03/05 06:00:31;;;;;;;41.17;20.77;;;7.40;99.90;;;;;;4955421;28;20052;-76
2024/03/05 06:02:59;;;;;;;40.20;20.75;;;7.50;99.90;;;;;;4997677;28;20384;-76
2024/03/05 06:05:30;;;;;;;46.65;24.58;;;7.40;99.90;;;;;;4970291;28;20359;-76
2024/03/05 06:08:00;;;;;;;45.30;23.40;;;7.40;99.90;;;;;;4953455;28;20078;-76
2024/03/05 06:10:28;;;;;;;63.70;30.48;;;7.40;99.90;;;;;;4970614;28;20566;-76
2024/03/05 06:12:55;;;;;;;68.20;34.58;;;7.40;99.90;;;;;;4977034;28;20030;-76
2024/03/05 06:15:23;;;;;;;74.35;35.30;;;7.40;99.90;;;;;;4992148;28;20029;-75
2024/03/05 06:17:51;;;;;;;63.13;31.77;;;7.40;99.90;;;;;;5017734;28;20128;-76
2024/03/05 06:20:18;;;;;;;63.75;33.33;;;7.40;99.90;;;;;;4954823;28;20057;-76
2024/03/05 06:22:45;;;;;;;63.72;30.65;;;7.40;99.90;;;;;;4987918;28;20033;-76
2024/03/05 06:25:16;;;;;;;61.85;30.52;;;7.40;99.90;;;;;;4989821;28;20897;-77
2024/03/05 06:27:43;;;;;;;52.35;25.70;;;7.40;99.90;;;;;;4992668;28;21336;-76
2024/03/05 06:30:17;;;;;;;58.22;29.77;;;7.40;99.90;;;;;;4979986;28;20042;-76
2024/03/05 06:32:48;;;;;;;54.78;26.70;;;7.50;99.90;;;;;;4969793;28;20033;-75
2024/03/05 06:35:22;;;;;;;57.30;27.20;;;7.50;99.90;;;;;;4966311;28;20109;-75
2024/03/05 06:37:50;;;;;;;57.45;27.83;;;7.50;99.90;;;;;;4966583;28;20045;-75
2024/03/05 06:40:22;;;;;;;51.65;24.67;;;7.50;99.90;;;;;;4997770;28;20973;-75
2024/03/05 06:42:52;;;;;;;;;;;7.50;99.90;;;;;;4951706;28;20041;-77
2024/03/05 06:45:27;;;;;;;50.95;26.02;;;7.50;99.90;;;;;;4990747;28;19917;-76
2024/03/05 06:47:57;;;;;;;48.72;23.73;;;7.50;99.90;;;;;;4976366;28;20037;-76
2024/03/05 06:50:33;;;;;;;53.42;25.50;;;7.50;99.90;;;;;;4987682;28;20692;-76
2024/03/05 06:58:32;;;;;;;49.13;23.92;;;7.50;99.90;;;;;;4979594;28;20511;-76
2024/03/05 07:00:59;;;;;;;62.20;28.42;;;7.50;99.90;;;;;;4980888;28;20129;-77
2024/03/05 07:03:28;;;;;;;57.13;27.67;;;7.60;99.90;;;;;;4968636;28;20044;-78
2024/03/05 07:05:55;;;;;;;57.88;28.98;;;7.60;99.90;;;;;;4991294;28;20033;-76
2024/03/05 07:08:22;;;;;;;54.15;28.42;;;7.60;99.90;;;;;;4994490;28;20037;-76
2024/03/05 07:10:49;;;;;;;55.63;25.60;;;7.60;99.90;;;;;;5000801;28;20044;-77
2024/03/05 07:13:16;;;;;;;55.17;28.50;;;7.60;99.90;;;;;;4964128;28;20096;-76
2024/03/05 07:15:42;;;;;;;59.42;29.90;;;7.60;99.90;;;;;;4985353;28;20037;-78
2024/03/05 07:18:08;;;;;;;52.88;26.85;;;7.60;99.90;;;;;;4967937;28;20037;-77
2024/03/05 07:20:36;;;;;;;60.00;27.92;;;7.70;99.90;;;;;;4991417;28;20041;-77
2024/03/05 07:23:02;;;;;;;62.97;30.02;;;7.70;99.90;;;;;;4978669;28;20045;-77
2024/03/05 07:25:29;;;;;;;58.45;28.98;;;7.70;99.90;;;;;;4986678;28;21199;-78
2024/03/05 07:27:56;;;;;;;53.40;26.65;;;7.70;99.90;;;;;;4966208;28;20850;-76
2024/03/05 07:30:22;;;;;;;47.35;23.13;;;7.70;99.90;;;;;;4969441;28;20040;-77
2024/03/05 07:32:49;;;;;;;42.70;22.25;;;7.80;99.90;;;;;;4982289;28;21563;-78
2024/03/05 07:35:17;;;;;;;48.05;23.95;;;7.80;99.90;;;;;;4991598;28;20650;-77
2024/03/05 07:37:46;;;;;;;50.78;25.92;;;7.80;99.90;;;;;;4992926;28;20052;-76
2024/03/05 07:40:18;;;;;;;65.82;30.08;;;7.90;99.90;;;;;;4968405;28;20041;-77
2024/03/05 07:42:51;;;;;;;57.75;27.00;;;7.90;99.90;;;;;;4965820;28;20037;-77
2024/03/05 07:45:21;;;;;;;50.45;25.38;;;7.90;99.90;;;;;;4951033;28;20534;-76
2024/03/05 07:47:49;;;;;;;52.58;26.65;;;8.00;99.90;;;;;;4968811;28;20037;-76
2024/03/05 07:50:16;;;;;;;46.85;23.83;;;8.00;99.90;;;;;;4992494;28;20424;-76
2024/03/05 07:52:44;;;;;;;42.20;21.70;;;8.00;99.90;;;;;;4993035;28;20033;-76
2024/03/05 07:55:16;;;;;;;50.65;24.20;;;8.10;99.90;;;;;;4988882;28;20957;-75
2024/03/05 07:57:43;;;;;;;46.95;23.45;;;8.10;99.90;;;;;;4985512;28;20123;-75
2024/03/05 08:00:14;;;;;;;44.00;23.45;;;8.20;99.90;;;;;;4992427;28;20033;-76
2024/03/05 08:02:41;;;;;;;43.13;21.15;;;8.20;99.90;;;;;;4973620;28;20053;-75
2024/03/05 08:05:08;;;;;;;44.25;21.98;;;8.30;99.90;;;;;;4988287;28;20026;-75
2024/03/05 08:07:36;;;;;;;48.03;23.50;;;8.40;99.90;;;;;;4981902;28;20052;-76
2024/03/05 08:10:09;;;;;;;50.75;25.30;;;8.40;99.90;;;;;;4967694;28;20044;-77
2024/03/05 08:12:37;;;;;;;48.67;26.52;;;8.40;99.90;;;;;;4993060;28;20034;-76
2024/03/05 08:15:04;;;;;;;47.58;25.02;;;8.50;99.90;;;;;;4994546;28;20041;-77
2024/03/05 08:17:33;;;;;;;46.38;23.98;;;8.60;99.90;;;;;;4977928;28;20037;-77
2024/03/05 08:20:00;;;;;;;43.85;23.25;;;8.60;99.90;;;;;;4995005;28;20041;-76
2024/03/05 08:22:26;;;;;;;54.00;28.73;;;8.70;99.90;;;;;;4996153;28;20049;-75
2024/03/05 08:24:53;;;;;;;55.22;27.92;;;8.70;99.90;;;;;;4969289;28;20034;-77
2024/03/05 08:27:19;;;;;;;53.38;26.30;;;8.70;99.90;;;;;;4993613;28;20044;-77
2024/03/05 08:29:49;;;;;;;54.03;26.33;;;8.70;99.90;;;;;;4974966;28;20033;-76
2024/03/05 08:32:17;;;;;;;51.75;28.45;;;8.80;99.90;;;;;;4994796;28;20038;-76
2024/03/05 08:34:46;;;;;;;56.67;28.30;;;8.90;99.90;;;;;;4992652;28;20033;-79
2024/03/05 08:37:15;;;;;;;55.50;30.02;;;8.90;99.90;;;;;;4999108;28;20028;-77
2024/03/05 08:39:42;;;;;;;60.83;30.05;;;8.90;99.90;;;;;;4982662;28;20041;-76
2024/03/05 08:42:09;;;;;;;52.58;28.05;;;8.90;99.90;;;;;;4957253;28;20041;-78
2024/03/05 08:44:35;;;;;;;53.55;28.23;;;9.00;99.90;;;;;;4975551;28;20038;-80
2024/03/05 08:47:02;;;;;;;53.45;26.73;;;9.00;99.90;;;;;;4988158;28;20041;-76
2024/03/05 08:49:29;;;;;;;58.88;28.55;;;9.10;99.90;;;;;;4974361;28;20049;-79
2024/03/05 08:51:57;;;;;;;56.75;28.92;;;9.10;99.90;;;;;;4978766;28;20513;-77
2024/03/05 08:54:24;;;;;;;57.95;30.70;;;9.10;99.90;;;;;;4993976;28;20030;-78
2024/03/05 08:56:50;;;;;;;52.90;28.52;;;9.20;99.90;;;;;;4968580;28;20053;-77
2024/03/05 08:59:17;;;;;;;61.53;29.60;;;9.20;99.90;;;;;;4971747;28;20049;-79
2024/03/05 09:01:44;;;;;;;61.25;29.45;;;9.30;99.90;;;;;;4967406;28;20045;-79
2024/03/05 09:04:10;;;;;;;56.22;30.77;;;9.30;99.90;;;;;;4988617;28;20042;-79
2024/03/05 09:06:37;;;;;;;58.65;29.75;;;9.40;99.90;;;;;;4996180;28;20038;-77
2024/03/05 09:09:03;;;;;;;65.40;32.45;;;9.40;99.90;;;;;;4997211;28;20033;-79
2024/03/05 09:11:29;;;;;;;73.22;35.88;;;9.40;99.90;;;;;;4991539;28;20428;-77
2024/03/05 09:13:56;;;;;;;73.47;35.42;;;9.40;99.90;;;;;;4974593;28;20040;-77
2024/03/05 09:16:22;;;;;;;63.30;30.85;;;9.40;99.90;;;;;;4992651;28;21112;-77
2024/03/05 09:18:49;;;;;;;62.83;32.03;;;9.40;99.90;;;;;;4993017;28;20873;-78
2024/03/05 09:21:15;;;;;;;81.22;40.47;;;9.50;99.90;;;;;;4980886;28;20046;-76
2024/03/05 09:23:42;;;;;;;78.75;39.20;;;9.60;99.90;;;;;;4997835;28;20052;-77
2024/03/05 09:26:08;;;;;;;69.63;35.88;;;9.60;99.90;;;;;;4963589;28;20487;-77
2024/03/05 09:28:35;;;;;;;65.07;33.58;;;9.70;99.90;;;;;;4974317;28;20033;-80
2024/03/05 09:31:01;;;;;;;66.38;34.60;;;9.70;99.90;;;;;;5024122;28;20496;-85
2024/03/05 09:33:29;;;;;;;67.05;35.30;;;9.70;99.90;;;;;;4972960;28;20036;-84
2024/03/05 09:35:56;;;;;;;65.18;34.83;;;9.70;99.90;;;;;;4977356;28;20033;-78
2024/03/05 09:38:22;;;;;;;67.40;34.75;;;9.80;99.90;;;;;;4999044;28;20032;-78
2024/03/05 09:40:51;;;;;;;62.63;32.83;;;9.90;99.90;;;;;;4991961;28;20697;-76
2024/03/05 09:43:23;;;;;;;61.10;32.80;;;9.90;99.90;;;;;;4972998;28;20037;-79
2024/03/05 09:45:51;;;;;;;57.70;30.73;;;10.00;99.90;;;;;;4973928;28;20587;-81
2024/03/05 09:48:20;;;;;;;64.43;33.55;;;10.00;99.90;;;;;;4990730;28;20349;-80
2024/03/05 09:50:49;;;;;;;57.03;30.90;;;10.10;99.90;;;;;;4978154;28;20045;-77
2024/03/05 09:53:16;;;;;;;62.65;34.08;;;10.20;99.90;;;;;;4998709;28;20045;-76
2024/03/05 09:55:43;;;;;;;59.15;33.35;;;10.30;99.90;;;;;;4993534;28;20108;-79
2024/03/05 09:58:11;;;;;;;58.85;31.35;;;10.30;99.90;;;;;;4971820;28;20373;-78
2024/03/05 10:00:38;;;;;;;54.38;30.02;;;10.40;99.90;;;;;;4972217;28;20143;-79
2024/03/05 10:03:07;;;;;;;58.53;32.20;;;10.50;99.90;;;;;;4985068;28;23403;-77
2024/03/05 10:05:34;;;;;;;59.13;32.03;;;10.60;99.90;;;;;;4974596;28;20053;-80
2024/03/05 10:08:01;;;;;;;53.20;30.63;;;10.60;99.90;;;;;;4995953;28;20030;-78
2024/03/05 10:10:32;;;;;;;59.00;32.33;;;10.60;99.90;;;;;;4988486;28;20048;-77
2024/03/05 10:13:02;;;;;;;55.72;30.40;;;10.60;99.90;;;;;;4983644;28;20818;-81
2024/03/05 10:15:28;;;;;;;53.28;31.27;;;10.70;99.90;;;;;;4992303;28;20056;-78
2024/03/05 10:17:55;;;;;;;56.22;32.95;;;10.80;99.90;;;;;;4986697;28;20037;-79
2024/03/05 10:20:29;;;;;;;56.90;31.00;;;10.80;99.90;;;;;;4972733;28;20045;-77
2024/03/05 10:23:00;;;;;;;55.70;30.92;;;10.90;99.90;;;;;;4991681;28;20041;-75
2024/03/05 10:25:28;;;;;;;51.13;30.17;;;10.90;99.90;;;;;;4987997;28;20465;-75
2024/03/05 10:27:55;;;;;;;52.45;31.50;;;11.00;99.90;;;;;;4967519;28;20291;-77
2024/03/05 10:30:25;;;;;;;61.30;34.42;;;11.10;99.90;;;;;;4957210;28;20037;-77
2024/03/05 10:32:53;;;;;;;54.17;31.15;;;11.10;99.90;;;;;;4968866;28;20527;-77
2024/03/05 10:35:20;;;;;;;51.33;30.10;;;11.20;99.90;;;;;;4977501;28;20969;-74
2024/03/05 10:38:05;;;;;;;51.58;30.17;;;11.20;99.90;;;;;;4997506;28;20041;-77
2024/03/05 10:40:34;;;;;;;48.70;29.42;;;11.20;99.90;;;;;;4971753;28;20036;-75
2024/03/05 10:43:05;;;;;;;54.15;30.40;;;11.30;99.90;;;;;;4971792;28;20052;-75
2024/03/05 10:45:34;;;;;;;46.20;28.17;;;11.40;99.90;;;;;;4988725;28;20406;-79
2024/03/05 10:48:01;;;;;;;49.28;28.08;;;11.40;99.90;;;;;;4987437;28;20033;-77
2024/03/05 10:50:28;;;;;;;48.13;28.00;;;11.40;99.90;;;;;;4962021;28;20049;-79
2024/03/05 10:52:56;;;;;;;51.05;29.40;;;11.40;99.90;;;;;;5012767;28;20063;-80
2024/03/05 10:55:23;;;;;;;46.38;27.83;;;11.40;99.90;;;;;;4962722;28;20029;-80
2024/03/05 11:00:37;;;;;;;42.42;25.92;;;11.50;99.90;;;;;;4990520;28;20482;-78
2024/03/05 11:03:09;;;;;;;40.40;24.90;;;11.40;99.90;;;;;;4969820;28;20693;-79
2024/03/05 11:05:44;;;;;;;35.38;24.13;;;11.40;99.90;;;;;;4990124;28;20040;-78
2024/03/05 11:08:13;;;;;;;38.45;25.10;;;11.40;99.90;;;;;;4981643;28;20523;-79
2024/03/05 11:10:43;;;;;;;45.90;27.80;;;11.30;99.90;;;;;;4975534;28;20039;-79
2024/03/05 11:13:11;;;;;;;41.65;24.02;;;11.30;99.90;;;;;;4987064;28;20041;-79
2024/03/05 11:15:39;;;;;;;38.65;22.92;;;11.20;99.90;;;;;;4987566;28;20033;-80
2024/03/05 11:18:28;;;;;;;36.78;22.10;;;11.10;99.90;;;;;;4986207;28;20029;-79
2024/03/05 11:20:54;;;;;;;32.90;20.63;;;11.10;99.90;;;;;;4993614;28;20127;-80
2024/03/05 11:23:25;;;;;;;36.58;23.42;;;11.10;99.90;;;;;;4980680;28;20070;-79
2024/03/05 11:25:52;;;;;;;37.58;23.50;;;11.10;99.90;;;;;;4989384;28;20025;-79
2024/03/05 11:28:20;;;;;;;35.83;23.52;;;11.10;99.90;;;;;;4982947;28;20029;-78
2024/03/05 11:30:47;;;;;;;30.13;19.25;;;11.10;99.90;;;;;;4986512;28;20017;-78
2024/03/05 11:33:18;;;;;;;32.80;20.83;;;11.10;99.90;;;;;;4983672;28;22404;-80
2024/03/05 11:35:46;;;;;;;31.02;21.42;;;11.10;99.90;;;;;;4952747;28;20041;-77
2024/03/05 11:38:13;;;;;;;36.35;23.90;;;11.10;99.90;;;;;;4992896;28;20044;-78
2024/03/05 11:40:42;;;;;;;31.65;20.95;;;11.10;99.90;;;;;;4989733;28;20073;-80
2024/03/05 11:43:09;;;;;;;29.45;18.45;;;11.10;99.90;;;;;;4963160;28;20041;-77
2024/03/05 11:45:49;;;;;;;32.05;21.75;;;11.10;99.90;;;;;;4982353;28;20060;-77
2024/03/05 11:48:18;;;;;;;31.60;20.98;;;11.10;99.90;;;;;;4981593;28;20037;-77
2024/03/05 11:50:52;;;;;;;29.75;19.98;;;11.00;99.90;;;;;;4951975;28;20057;-77
2024/03/05 11:53:19;;;;;;;30.45;21.65;;;11.00;99.90;;;;;;4980299;28;20037;-78
2024/03/05 11:55:46;;;;;;;25.85;17.67;;;10.90;99.90;;;;;;4992082;28;20030;-79
2024/03/05 11:58:23;;;;;;;25.08;16.83;;;10.90;99.90;;;;;;4985642;28;20441;-77
2024/03/05 12:00:49;;;;;;;20.98;14.85;;;10.80;99.90;;;;;;4982399;28;20882;-77
2024/03/05 12:03:19;;;;;;;24.63;16.20;;;10.80;99.90;;;;;;4983511;28;20053;-78
2024/03/05 12:05:46;;;;;;;22.15;14.75;;;10.70;99.90;;;;;;4984555;28;20040;-77
2024/03/05 12:08:12;;;;;;;25.55;17.38;;;10.60;99.90;;;;;;4989472;28;20033;-79
2024/03/05 12:10:39;;;;;;;20.02;13.68;;;10.50;99.90;;;;;;4972470;28;20033;-78
2024/03/05 12:13:06;;;;;;;20.98;14.85;;;10.40;99.90;;;;;;4967002;28;20862;-79
2024/03/05 12:15:35;;;;;;;20.65;15.60;;;10.30;99.90;;;;;;4950577;28;21103;-77
2024/03/05 12:18:12;;;;;;;18.10;13.82;;;10.30;99.90;;;;;;4981626;28;20060;-78
2024/03/05 12:20:42;;;;;;;19.38;14.25;;;10.20;99.90;;;;;;4950818;28;20037;-79
2024/03/05 12:23:09;;;;;;;18.55;14.32;;;10.10;99.90;;;;;;4972971;28;20424;-78
2024/03/05 12:25:35;;;;;;;20.73;15.80;;;10.10;99.90;;;;;;4994369;28;20331;-78
2024/03/05 12:28:02;;;;;;;21.13;15.05;;;10.00;99.90;;;;;;4984459;28;20038;-78
2024/03/05 12:30:33;;;;;;;19.35;12.73;;;9.90;99.90;;;;;;4980516;28;20599;-82
2024/03/05 12:33:00;;;;;;;26.00;15.40;;;9.90;99.90;;;;;;4982730;28;20526;-82
2024/03/05 12:35:27;;;;;;;19.95;13.77;;;9.80;99.90;;;;;;4985884;28;20042;-82
2024/03/05 12:37:55;;;;;;;18.38;12.38;;;9.80;99.90;;;;;;4999418;28;20033;-81
2024/03/05 12:40:24;;;;;;;18.25;12.43;;;9.60;99.90;;;;;;5008615;28;20045;-81
2024/03/05 12:42:52;;;;;;;16.33;11.38;;;9.60;99.90;;;;;;4990085;28;20031;-80
2024/03/05 12:45:18;;;;;;;16.05;10.57;;;9.50;99.90;;;;;;4986490;28;20029;-82
2024/03/05 12:47:55;;;;;;;14.57;10.02;;;9.50;99.90;;;;;;4988040;28;20928;-83